Lodi, New Jersey
Current Conditions -  °F | °C
As of 3:51 AM on Thursday 27 Nov 2014 (Local Time) from KTEB Reporting Station
Overcast Overcast  
Wind Chill: 36°   Ceiling: 6500
Heat Index: 36°   Visibility: 10mi
Dew Point: 30°   Wind: 3mph
Humidity: 79%   Direction: 340°NNW
Pressure: 29.92"   Gusts: NA
Location:  40.88°N, 74.08°W
Report Text: KTEB 270851Z 34003KT 10SM OVC065 02/M01 A2992 RMK AO2 SLP130 T00221011 51022 $
Loading
Personal Weather Stations






























Interactive Weather Map New forecast layout! Learn more

10-Day Weather Forecast

Advertisements
Track Severe Weather on mobile